sensor_id;sensor_type;location;lat;lon;timestamp;P1;durP1;ratioP1;P2;durP2;ratioP2
45392;SDS011;31129;44.810;10.334;2022-10-30T00:00:39;12.70;;;5.40;;
45392;SDS011;31129;44.810;10.334;2022-10-30T00:03:05;10.63;;;4.88;;
45392;SDS011;31129;44.810;10.334;2022-10-30T00:05:31;12.07;;;5.20;;
45392;SDS011;31129;44.810;10.334;2022-10-30T00:07:57;10.80;;;5.07;;
45392;SDS011;31129;44.810;10.334;2022-10-30T00:10:23;12.55;;;4.75;;
45392;SDS011;31129;44.810;10.334;2022-10-30T00:12:48;8.30;;;4.32;;
45392;SDS011;31129;44.810;10.334;2022-10-30T00:15:14;12.57;;;4.30;;
45392;SDS011;31129;44.810;10.334;2022-10-30T00:17:39;11.68;;;4.53;;
45392;SDS011;31129;44.810;10.334;2022-10-30T00:20:05;10.05;;;4.13;;
45392;SDS011;31129;44.810;10.334;2022-10-30T00:22:31;9.80;;;4.03;;
45392;SDS011;31129;44.810;10.334;2022-10-30T00:24:57;8.23;;;4.15;;
45392;SDS011;31129;44.810;10.334;2022-10-30T00:27:22;8.45;;;3.97;;
45392;SDS011;31129;44.810;10.334;2022-10-30T00:29:48;11.65;;;3.88;;
45392;SDS011;31129;44.810;10.334;2022-10-30T00:32:13;11.40;;;4.03;;
45392;SDS011;31129;44.810;10.334;2022-10-30T00:34:39;9.82;;;3.75;;
45392;SDS011;31129;44.810;10.334;2022-10-30T00:37:06;8.50;;;3.70;;
45392;SDS011;31129;44.810;10.334;2022-10-30T00:39:31;10.05;;;4.10;;
45392;SDS011;31129;44.810;10.334;2022-10-30T00:41:57;7.18;;;4.25;;
45392;SDS011;31129;44.810;10.334;2022-10-30T00:44:36;11.65;;;3.88;;
45392;SDS011;31129;44.810;10.334;2022-10-30T00:47:04;9.10;;;4.05;;
45392;SDS011;31129;44.810;10.334;2022-10-30T00:49:34;8.93;;;4.80;;
45392;SDS011;31129;44.810;10.334;2022-10-30T00:52:04;17.63;;;4.50;;
45392;SDS011;31129;44.810;10.334;2022-10-30T00:54:33;10.45;;;3.38;;
45392;SDS011;31129;44.810;10.334;2022-10-30T00:57:00;6.63;;;4.13;;
45392;SDS011;31129;44.810;10.334;2022-10-30T00:59:31;9.23;;;3.53;;
45392;SDS011;31129;44.810;10.334;2022-10-30T01:01:57;15.00;;;4.13;;
45392;SDS011;31129;44.810;10.334;2022-10-30T01:04:25;6.40;;;3.50;;
45392;SDS011;31129;44.810;10.334;2022-10-30T01:06:51;11.52;;;4.28;;
45392;SDS011;31129;44.810;10.334;2022-10-30T01:09:18;8.45;;;3.28;;
45392;SDS011;31129;44.810;10.334;2022-10-30T01:11:44;8.45;;;3.50;;
45392;SDS011;31129;44.810;10.334;2022-10-30T01:14:10;8.82;;;4.32;;
45392;SDS011;31129;44.810;10.334;2022-10-30T01:22:17;11.02;;;4.18;;
45392;SDS011;31129;44.810;10.334;2022-10-30T01:24:48;7.55;;;3.50;;
45392;SDS011;31129;44.810;10.334;2022-10-30T01:30:16;11.75;;;3.60;;
45392;SDS011;31129;44.810;10.334;2022-10-30T01:36:00;10.63;;;3.78;;
45392;SDS011;31129;44.810;10.334;2022-10-30T01:38:43;8.07;;;3.53;;
45392;SDS011;31129;44.810;10.334;2022-10-30T01:41:13;7.40;;;3.35;;
45392;SDS011;31129;44.810;10.334;2022-10-30T01:43:42;6.72;;;3.60;;
45392;SDS011;31129;44.810;10.334;2022-10-30T01:48:49;9.93;;;3.30;;
45392;SDS011;31129;44.810;10.334;2022-10-30T01:57:15;7.75;;;3.20;;
45392;SDS011;31129;44.810;10.334;2022-10-30T01:59:45;5.97;;;3.83;;
45392;SDS011;31129;44.810;10.334;2022-10-30T02:02:15;10.95;;;3.45;;
45392;SDS011;31129;44.810;10.334;2022-10-30T02:04:42;9.35;;;3.75;;
45392;SDS011;31129;44.810;10.334;2022-10-30T02:07:09;7.85;;;3.08;;
45392;SDS011;31129;44.810;10.334;2022-10-30T02:09:41;5.55;;;3.22;;
45392;SDS011;31129;44.810;10.334;2022-10-30T02:12:07;9.50;;;3.13;;
45392;SDS011;31129;44.810;10.334;2022-10-30T02:14:39;6.10;;;3.03;;
45392;SDS011;31129;44.810;10.334;2022-10-30T02:17:09;6.18;;;3.20;;
45392;SDS011;31129;44.810;10.334;2022-10-30T02:19:35;4.85;;;2.70;;
45392;SDS011;31129;44.810;10.334;2022-10-30T02:22:02;7.40;;;2.92;;
45392;SDS011;31129;44.810;10.334;2022-10-30T02:24:28;7.22;;;3.33;;
45392;SDS011;31129;44.810;10.334;2022-10-30T02:26:54;8.02;;;3.38;;
45392;SDS011;31129;44.810;10.334;2022-10-30T02:29:20;8.90;;;3.15;;
45392;SDS011;31129;44.810;10.334;2022-10-30T02:31:46;8.35;;;3.30;;
45392;SDS011;31129;44.810;10.334;2022-10-30T02:34:12;8.93;;;3.30;;
45392;SDS011;31129;44.810;10.334;2022-10-30T02:36:38;9.50;;;3.03;;
45392;SDS011;31129;44.810;10.334;2022-10-30T02:39:03;11.30;;;3.58;;
45392;SDS011;31129;44.810;10.334;2022-10-30T02:41:29;12.10;;;3.38;;
45392;SDS011;31129;44.810;10.334;2022-10-30T02:43:54;9.07;;;3.75;;
45392;SDS011;31129;44.810;10.334;2022-10-30T02:46:20;8.63;;;3.10;;
45392;SDS011;31129;44.810;10.334;2022-10-30T02:48:47;10.05;;;3.47;;
45392;SDS011;31129;44.810;10.334;2022-10-30T02:51:12;9.98;;;3.55;;
45392;SDS011;31129;44.810;10.334;2022-10-30T02:53:38;16.40;;;3.55;;
45392;SDS011;31129;44.810;10.334;2022-10-30T02:56:07;7.75;;;3.55;;
45392;SDS011;31129;44.810;10.334;2022-10-30T02:58:35;12.40;;;3.58;;
45392;SDS011;31129;44.810;10.334;2022-10-30T03:01:12;10.25;;;3.25;;
45392;SDS011;31129;44.810;10.334;2022-10-30T03:03:39;8.18;;;3.22;;
45392;SDS011;31129;44.810;10.334;2022-10-30T03:06:06;8.27;;;3.47;;
45392;SDS011;31129;44.810;10.334;2022-10-30T03:08:34;9.73;;;3.42;;
45392;SDS011;31129;44.810;10.334;2022-10-30T03:11:04;6.55;;;3.92;;
45392;SDS011;31129;44.810;10.334;2022-10-30T03:13:32;9.65;;;3.70;;
45392;SDS011;31129;44.810;10.334;2022-10-30T03:16:02;11.50;;;3.85;;
45392;SDS011;31129;44.810;10.334;2022-10-30T03:18:31;11.10;;;4.32;;
45392;SDS011;31129;44.810;10.334;2022-10-30T03:21:01;11.68;;;4.45;;
45392;SDS011;31129;44.810;10.334;2022-10-30T03:23:29;10.10;;;3.92;;
45392;SDS011;31129;44.810;10.334;2022-10-30T03:25:55;10.70;;;4.03;;
45392;SDS011;31129;44.810;10.334;2022-10-30T03:28:24;10.05;;;4.65;;
45392;SDS011;31129;44.810;10.334;2022-10-30T03:30:51;12.57;;;3.72;;
45392;SDS011;31129;44.810;10.334;2022-10-30T03:33:22;7.95;;;3.63;;
45392;SDS011;31129;44.810;10.334;2022-10-30T03:35:48;6.07;;;3.20;;
45392;SDS011;31129;44.810;10.334;2022-10-30T03:38:14;10.77;;;4.07;;
45392;SDS011;31129;44.810;10.334;2022-10-30T03:40:40;6.50;;;3.80;;
45392;SDS011;31129;44.810;10.334;2022-10-30T03:43:06;14.30;;;4.80;;
45392;SDS011;31129;44.810;10.334;2022-10-30T03:45:32;8.52;;;4.80;;
45392;SDS011;31129;44.810;10.334;2022-10-30T03:48:02;18.38;;;5.30;;
45392;SDS011;31129;44.810;10.334;2022-10-30T03:50:30;12.50;;;4.60;;
45392;SDS011;31129;44.810;10.334;2022-10-30T03:52:56;11.27;;;4.80;;
45392;SDS011;31129;44.810;10.334;2022-10-30T03:55:22;11.77;;;4.95;;
45392;SDS011;31129;44.810;10.334;2022-10-30T03:57:49;15.50;;;5.30;;
45392;SDS011;31129;44.810;10.334;2022-10-30T04:00:16;18.30;;;5.03;;
45392;SDS011;31129;44.810;10.334;2022-10-30T04:02:55;13.55;;;4.85;;
45392;SDS011;31129;44.810;10.334;2022-10-30T04:05:22;7.60;;;4.75;;
45392;SDS011;31129;44.810;10.334;2022-10-30T04:07:58;8.73;;;4.85;;
45392;SDS011;31129;44.810;10.334;2022-10-30T04:10:27;9.98;;;5.07;;
45392;SDS011;31129;44.810;10.334;2022-10-30T04:13:00;11.88;;;4.85;;
45392;SDS011;31129;44.810;10.334;2022-10-30T04:15:27;13.05;;;5.25;;
45392;SDS011;31129;44.810;10.334;2022-10-30T04:17:53;13.63;;;5.28;;
45392;SDS011;31129;44.810;10.334;2022-10-30T04:20:19;11.07;;;4.85;;
45392;SDS011;31129;44.810;10.334;2022-10-30T04:22:46;12.52;;;4.45;;
45392;SDS011;31129;44.810;10.334;2022-10-30T04:25:16;10.93;;;4.47;;
45392;SDS011;31129;44.810;10.334;2022-10-30T04:27:42;9.10;;;4.47;;
45392;SDS011;31129;44.810;10.334;2022-10-30T04:30:09;9.73;;;4.05;;
45392;SDS011;31129;44.810;10.334;2022-10-30T04:32:36;11.38;;;4.53;;
45392;SDS011;31129;44.810;10.334;2022-10-30T04:35:13;7.75;;;4.15;;
45392;SDS011;31129;44.810;10.334;2022-10-30T04:37:39;11.60;;;4.68;;
45392;SDS011;31129;44.810;10.334;2022-10-30T04:40:06;8.95;;;4.40;;
45392;SDS011;31129;44.810;10.334;2022-10-30T04:42:39;10.75;;;4.18;;
45392;SDS011;31129;44.810;10.334;2022-10-30T04:45:06;13.82;;;3.35;;
45392;SDS011;31129;44.810;10.334;2022-10-30T04:47:32;12.70;;;4.00;;
45392;SDS011;31129;44.810;10.334;2022-10-30T04:49:58;10.48;;;4.47;;
45392;SDS011;31129;44.810;10.334;2022-10-30T04:52:23;11.65;;;3.75;;
45392;SDS011;31129;44.810;10.334;2022-10-30T04:54:49;9.88;;;4.47;;
45392;SDS011;31129;44.810;10.334;2022-10-30T04:57:14;11.30;;;4.13;;
45392;SDS011;31129;44.810;10.334;2022-10-30T04:59:41;11.82;;;4.03;;
45392;SDS011;31129;44.810;10.334;2022-10-30T05:02:06;11.18;;;3.67;;
45392;SDS011;31129;44.810;10.334;2022-10-30T05:04:32;9.88;;;3.70;;
45392;SDS011;31129;44.810;10.334;2022-10-30T05:06:58;9.23;;;3.78;;
45392;SDS011;31129;44.810;10.334;2022-10-30T05:09:23;6.60;;;3.75;;
45392;SDS011;31129;44.810;10.334;2022-10-30T05:11:49;8.32;;;3.80;;
45392;SDS011;31129;44.810;10.334;2022-10-30T05:14:14;9.98;;;5.13;;
45392;SDS011;31129;44.810;10.334;2022-10-30T05:16:42;6.68;;;3.55;;
45392;SDS011;31129;44.810;10.334;2022-10-30T05:19:07;7.38;;;3.53;;
45392;SDS011;31129;44.810;10.334;2022-10-30T05:21:33;7.10;;;3.80;;
45392;SDS011;31129;44.810;10.334;2022-10-30T05:23:59;9.57;;;4.15;;
45392;SDS011;31129;44.810;10.334;2022-10-30T05:26:25;13.45;;;3.90;;
45392;SDS011;31129;44.810;10.334;2022-10-30T05:28:52;8.95;;;3.58;;
45392;SDS011;31129;44.810;10.334;2022-10-30T05:31:17;13.65;;;3.95;;
45392;SDS011;31129;44.810;10.334;2022-10-30T05:33:55;10.30;;;3.60;;
45392;SDS011;31129;44.810;10.334;2022-10-30T05:36:22;11.13;;;3.65;;
45392;SDS011;31129;44.810;10.334;2022-10-30T05:38:48;7.82;;;3.75;;
45392;SDS011;31129;44.810;10.334;2022-10-30T05:41:24;7.97;;;3.28;;
45392;SDS011;31129;44.810;10.334;2022-10-30T05:43:49;6.32;;;3.13;;
45392;SDS011;31129;44.810;10.334;2022-10-30T05:46:15;13.05;;;3.80;;
45392;SDS011;31129;44.810;10.334;2022-10-30T05:48:41;9.20;;;3.83;;
45392;SDS011;31129;44.810;10.334;2022-10-30T05:51:06;8.48;;;4.22;;
45392;SDS011;31129;44.810;10.334;2022-10-30T05:53:33;5.95;;;2.88;;
45392;SDS011;31129;44.810;10.334;2022-10-30T05:56:00;6.70;;;3.05;;
45392;SDS011;31129;44.810;10.334;2022-10-30T05:58:30;10.60;;;3.30;;
45392;SDS011;31129;44.810;10.334;2022-10-30T06:00:57;10.18;;;3.75;;
45392;SDS011;31129;44.810;10.334;2022-10-30T06:03:37;9.40;;;3.88;;
45392;SDS011;31129;44.810;10.334;2022-10-30T06:06:02;8.88;;;3.83;;
45392;SDS011;31129;44.810;10.334;2022-10-30T06:08:28;12.07;;;3.58;;
45392;SDS011;31129;44.810;10.334;2022-10-30T06:10:56;15.32;;;3.42;;
45392;SDS011;31129;44.810;10.334;2022-10-30T06:13:27;14.27;;;3.78;;
45392;SDS011;31129;44.810;10.334;2022-10-30T06:15:59;9.43;;;3.28;;
45392;SDS011;31129;44.810;10.334;2022-10-30T06:18:35;8.15;;;3.45;;
45392;SDS011;31129;44.810;10.334;2022-10-30T06:21:07;10.27;;;4.18;;
45392;SDS011;31129;44.810;10.334;2022-10-30T06:24:02;10.90;;;4.13;;
45392;SDS011;31129;44.810;10.334;2022-10-30T06:26:35;10.82;;;3.70;;
45392;SDS011;31129;44.810;10.334;2022-10-30T06:29:07;8.55;;;4.32;;
45392;SDS011;31129;44.810;10.334;2022-10-30T06:31:32;12.10;;;3.55;;
45392;SDS011;31129;44.810;10.334;2022-10-30T06:33:59;7.43;;;3.72;;
45392;SDS011;31129;44.810;10.334;2022-10-30T06:36:25;9.20;;;3.50;;
45392;SDS011;31129;44.810;10.334;2022-10-30T06:38:51;14.40;;;3.28;;
45392;SDS011;31129;44.810;10.334;2022-10-30T06:41:18;8.82;;;3.95;;
45392;SDS011;31129;44.810;10.334;2022-10-30T06:43:59;8.70;;;2.85;;
45392;SDS011;31129;44.810;10.334;2022-10-30T06:46:25;10.90;;;3.78;;
45392;SDS011;31129;44.810;10.334;2022-10-30T06:48:50;7.28;;;2.97;;
45392;SDS011;31129;44.810;10.334;2022-10-30T06:51:17;9.55;;;2.80;;
45392;SDS011;31129;44.810;10.334;2022-10-30T06:53:44;8.05;;;3.08;;
45392;SDS011;31129;44.810;10.334;2022-10-30T06:56:28;6.40;;;3.05;;
45392;SDS011;31129;44.810;10.334;2022-10-30T06:59:05;11.35;;;2.75;;
45392;SDS011;31129;44.810;10.334;2022-10-30T07:01:34;11.93;;;3.47;;
45392;SDS011;31129;44.810;10.334;2022-10-30T07:04:11;7.63;;;3.15;;
45392;SDS011;31129;44.810;10.334;2022-10-30T07:06:36;8.73;;;3.03;;
45392;SDS011;31129;44.810;10.334;2022-10-30T07:09:02;11.98;;;3.40;;
45392;SDS011;31129;44.810;10.334;2022-10-30T07:11:27;8.30;;;3.75;;
45392;SDS011;31129;44.810;10.334;2022-10-30T07:14:11;6.07;;;3.53;;
45392;SDS011;31129;44.810;10.334;2022-10-30T07:16:53;11.45;;;3.20;;
45392;SDS011;31129;44.810;10.334;2022-10-30T07:19:19;12.20;;;4.88;;
45392;SDS011;31129;44.810;10.334;2022-10-30T07:21:44;15.93;;;3.45;;
45392;SDS011;31129;44.810;10.334;2022-10-30T07:24:10;11.32;;;3.17;;
45392;SDS011;31129;44.810;10.334;2022-10-30T07:27:01;10.02;;;3.65;;
45392;SDS011;31129;44.810;10.334;2022-10-30T07:29:36;7.15;;;3.22;;
45392;SDS011;31129;44.810;10.334;2022-10-30T07:32:22;10.57;;;3.17;;
45392;SDS011;31129;44.810;10.334;2022-10-30T07:35:11;9.18;;;3.50;;
45392;SDS011;31129;44.810;10.334;2022-10-30T07:38:01;9.50;;;3.47;;
45392;SDS011;31129;44.810;10.334;2022-10-30T07:40:51;16.67;;;3.65;;
45392;SDS011;31129;44.810;10.334;2022-10-30T07:43:44;7.35;;;3.50;;
45392;SDS011;31129;44.810;10.334;2022-10-30T07:46:29;8.23;;;3.70;;
45392;SDS011;31129;44.810;10.334;2022-10-30T07:49:08;8.75;;;3.72;;
45392;SDS011;31129;44.810;10.334;2022-10-30T07:51:40;13.60;;;3.78;;
45392;SDS011;31129;44.810;10.334;2022-10-30T07:54:06;7.18;;;3.05;;
45392;SDS011;31129;44.810;10.334;2022-10-30T07:56:32;7.50;;;3.70;;
45392;SDS011;31129;44.810;10.334;2022-10-30T07:59:17;7.75;;;3.35;;
45392;SDS011;31129;44.810;10.334;2022-10-30T08:02:01;10.45;;;3.42;;
45392;SDS011;31129;44.810;10.334;2022-10-30T08:04:36;8.15;;;3.20;;
45392;SDS011;31129;44.810;10.334;2022-10-30T08:07:22;7.20;;;3.03;;
45392;SDS011;31129;44.810;10.334;2022-10-30T08:09:48;10.95;;;3.92;;
45392;SDS011;31129;44.810;10.334;2022-10-30T08:12:14;5.28;;;3.50;;
45392;SDS011;31129;44.810;10.334;2022-10-30T08:14:40;9.40;;;3.30;;
45392;SDS011;31129;44.810;10.334;2022-10-30T08:17:05;9.32;;;3.30;;
45392;SDS011;31129;44.810;10.334;2022-10-30T08:19:34;10.77;;;4.22;;
45392;SDS011;31129;44.810;10.334;2022-10-30T08:22:00;9.02;;;3.17;;
45392;SDS011;31129;44.810;10.334;2022-10-30T08:24:26;11.15;;;4.28;;
45392;SDS011;31129;44.810;10.334;2022-10-30T08:26:55;12.93;;;3.72;;
45392;SDS011;31129;44.810;10.334;2022-10-30T08:29:21;11.60;;;3.58;;
45392;SDS011;31129;44.810;10.334;2022-10-30T08:31:48;12.60;;;3.80;;
45392;SDS011;31129;44.810;10.334;2022-10-30T08:34:20;10.80;;;4.00;;
45392;SDS011;31129;44.810;10.334;2022-10-30T08:36:50;8.38;;;3.90;;
45392;SDS011;31129;44.810;10.334;2022-10-30T08:39:17;8.77;;;4.30;;
45392;SDS011;31129;44.810;10.334;2022-10-30T08:41:56;8.27;;;3.60;;
45392;SDS011;31129;44.810;10.334;2022-10-30T08:44:22;14.65;;;4.65;;
45392;SDS011;31129;44.810;10.334;2022-10-30T08:47:10;13.88;;;4.40;;
45392;SDS011;31129;44.810;10.334;2022-10-30T08:49:37;12.68;;;4.13;;
45392;SDS011;31129;44.810;10.334;2022-10-30T08:52:06;9.20;;;3.63;;
45392;SDS011;31129;44.810;10.334;2022-10-30T08:54:32;13.02;;;4.13;;
45392;SDS011;31129;44.810;10.334;2022-10-30T08:56:58;10.40;;;4.30;;
45392;SDS011;31129;44.810;10.334;2022-10-30T08:59:24;10.55;;;4.10;;
45392;SDS011;31129;44.810;10.334;2022-10-30T09:01:52;19.45;;;4.88;;
45392;SDS011;31129;44.810;10.334;2022-10-30T09:04:17;8.65;;;4.10;;
45392;SDS011;31129;44.810;10.334;2022-10-30T09:07:06;10.40;;;4.53;;
45392;SDS011;31129;44.810;10.334;2022-10-30T09:09:58;12.60;;;4.45;;
45392;SDS011;31129;44.810;10.334;2022-10-30T09:12:26;11.30;;;4.47;;
45392;SDS011;31129;44.810;10.334;2022-10-30T09:14:52;12.38;;;4.68;;
45392;SDS011;31129;44.810;10.334;2022-10-30T09:17:17;12.57;;;5.57;;
45392;SDS011;31129;44.810;10.334;2022-10-30T09:19:45;11.60;;;5.57;;
45392;SDS011;31129;44.810;10.334;2022-10-30T09:22:15;12.05;;;5.05;;
45392;SDS011;31129;44.810;10.334;2022-10-30T09:24:42;17.35;;;6.28;;
45392;SDS011;31129;44.810;10.334;2022-10-30T09:27:37;20.42;;;7.38;;
45392;SDS011;31129;44.810;10.334;2022-10-30T09:30:04;19.48;;;7.88;;
45392;SDS011;31129;44.810;10.334;2022-10-30T09:32:33;19.00;;;8.23;;
45392;SDS011;31129;44.810;10.334;2022-10-30T09:35:06;14.52;;;6.93;;
45392;SDS011;31129;44.810;10.334;2022-10-30T09:37:37;17.50;;;6.88;;
45392;SDS011;31129;44.810;10.334;2022-10-30T09:40:09;21.58;;;7.10;;
45392;SDS011;31129;44.810;10.334;2022-10-30T09:42:44;20.65;;;9.68;;
45392;SDS011;31129;44.810;10.334;2022-10-30T09:45:17;17.17;;;8.43;;
45392;SDS011;31129;44.810;10.334;2022-10-30T09:53:58;22.42;;;10.82;;
45392;SDS011;31129;44.810;10.334;2022-10-30T09:56:43;18.92;;;11.23;;
45392;SDS011;31129;44.810;10.334;2022-10-30T10:04:57;25.08;;;13.48;;
45392;SDS011;31129;44.810;10.334;2022-10-30T10:08:06;34.88;;;16.73;;
45392;SDS011;31129;44.810;10.334;2022-10-30T10:11:13;25.98;;;15.82;;
45392;SDS011;31129;44.810;10.334;2022-10-30T10:13:44;28.15;;;15.98;;
45392;SDS011;31129;44.810;10.334;2022-10-30T10:16:24;33.65;;;17.10;;
45392;SDS011;31129;44.810;10.334;2022-10-30T10:21:34;31.83;;;16.05;;
45392;SDS011;31129;44.810;10.334;2022-10-30T10:24:08;42.60;;;18.60;;
45392;SDS011;31129;44.810;10.334;2022-10-30T10:26:45;36.25;;;18.08;;
45392;SDS011;31129;44.810;10.334;2022-10-30T10:34:52;39.95;;;19.30;;
45392;SDS011;31129;44.810;10.334;2022-10-30T10:43:08;32.15;;;17.92;;
45392;SDS011;31129;44.810;10.334;2022-10-30T10:51:33;35.13;;;17.98;;
45392;SDS011;31129;44.810;10.334;2022-10-30T10:54:41;36.25;;;18.90;;
45392;SDS011;31129;44.810;10.334;2022-10-30T10:57:25;38.45;;;18.95;;
45392;SDS011;31129;44.810;10.334;2022-10-30T10:59:53;38.22;;;19.40;;
45392;SDS011;31129;44.810;10.334;2022-10-30T11:08:17;38.25;;;18.90;;
45392;SDS011;31129;44.810;10.334;2022-10-30T11:10:46;33.78;;;17.92;;
45392;SDS011;31129;44.810;10.334;2022-10-30T11:13:15;30.95;;;18.60;;
45392;SDS011;31129;44.810;10.334;2022-10-30T11:18:33;36.00;;;17.13;;
45392;SDS011;31129;44.810;10.334;2022-10-30T11:21:03;36.22;;;17.70;;
45392;SDS011;31129;44.810;10.334;2022-10-30T11:28:50;36.08;;;16.98;;
45392;SDS011;31129;44.810;10.334;2022-10-30T11:31:20;31.50;;;17.25;;
45392;SDS011;31129;44.810;10.334;2022-10-30T11:33:46;33.30;;;16.98;;
45392;SDS011;31129;44.810;10.334;2022-10-30T11:36:22;36.30;;;17.38;;
45392;SDS011;31129;44.810;10.334;2022-10-30T11:38:48;40.88;;;16.83;;
45392;SDS011;31129;44.810;10.334;2022-10-30T11:41:14;40.15;;;16.95;;
45392;SDS011;31129;44.810;10.334;2022-10-30T11:43:41;35.83;;;17.92;;
45392;SDS011;31129;44.810;10.334;2022-10-30T11:46:08;35.60;;;16.80;;
45392;SDS011;31129;44.810;10.334;2022-10-30T11:48:39;30.73;;;17.05;;
45392;SDS011;31129;44.810;10.334;2022-10-30T11:51:08;35.22;;;16.63;;
45392;SDS011;31129;44.810;10.334;2022-10-30T11:53:36;38.28;;;15.77;;
45392;SDS011;31129;44.810;10.334;2022-10-30T11:56:19;30.70;;;15.20;;
45392;SDS011;31129;44.810;10.334;2022-10-30T11:58:48;31.80;;;15.75;;
45392;SDS011;31129;44.810;10.334;2022-10-30T12:03:55;32.85;;;14.32;;
45392;SDS011;31129;44.810;10.334;2022-10-30T12:06:36;30.73;;;15.02;;
45392;SDS011;31129;44.810;10.334;2022-10-30T12:09:09;28.55;;;15.77;;
45392;SDS011;31129;44.810;10.334;2022-10-30T12:11:36;28.95;;;15.55;;
45392;SDS011;31129;44.810;10.334;2022-10-30T12:14:04;30.35;;;15.30;;
45392;SDS011;31129;44.810;10.334;2022-10-30T12:16:31;24.83;;;14.02;;
45392;SDS011;31129;44.810;10.334;2022-10-30T12:21:37;29.55;;;15.40;;
45392;SDS011;31129;44.810;10.334;2022-10-30T12:24:05;31.83;;;14.60;;
45392;SDS011;31129;44.810;10.334;2022-10-30T12:26:40;34.42;;;14.13;;
45392;SDS011;31129;44.810;10.334;2022-10-30T12:29:13;28.15;;;13.35;;
45392;SDS011;31129;44.810;10.334;2022-10-30T12:31:45;32.42;;;15.32;;
45392;SDS011;31129;44.810;10.334;2022-10-30T12:34:36;29.42;;;13.82;;
45392;SDS011;31129;44.810;10.334;2022-10-30T12:37:10;19.58;;;13.00;;
45392;SDS011;31129;44.810;10.334;2022-10-30T12:42:27;26.83;;;12.33;;
45392;SDS011;31129;44.810;10.334;2022-10-30T12:55:54;23.85;;;13.55;;
45392;SDS011;31129;44.810;10.334;2022-10-30T13:01:04;24.92;;;12.23;;
45392;SDS011;31129;44.810;10.334;2022-10-30T13:06:25;23.83;;;13.05;;
45392;SDS011;31129;44.810;10.334;2022-10-30T13:11:38;25.58;;;12.82;;
45392;SDS011;31129;44.810;10.334;2022-10-30T13:14:08;28.98;;;13.73;;
45392;SDS011;31129;44.810;10.334;2022-10-30T13:16:39;28.48;;;12.48;;
45392;SDS011;31129;44.810;10.334;2022-10-30T13:19:07;27.63;;;14.32;;
45392;SDS011;31129;44.810;10.334;2022-10-30T13:27:20;29.20;;;13.20;;
45392;SDS011;31129;44.810;10.334;2022-10-30T13:30:15;20.40;;;13.20;;
45392;SDS011;31129;44.810;10.334;2022-10-30T13:53:43;30.83;;;12.23;;
45392;SDS011;31129;44.810;10.334;2022-10-30T13:56:14;22.00;;;11.20;;
45392;SDS011;31129;44.810;10.334;2022-10-30T13:58:46;23.13;;;10.77;;
45392;SDS011;31129;44.810;10.334;2022-10-30T14:01:30;22.45;;;9.85;;
45392;SDS011;31129;44.810;10.334;2022-10-30T14:06:49;20.08;;;10.13;;
45392;SDS011;31129;44.810;10.334;2022-10-30T14:20:38;22.23;;;9.50;;
45392;SDS011;31129;44.810;10.334;2022-10-30T14:26:29;23.13;;;9.07;;
45392;SDS011;31129;44.810;10.334;2022-10-30T14:28:30;19.95;;;9.57;;
45392;SDS011;31129;44.810;10.334;2022-10-30T14:31:32;18.88;;;8.73;;
45392;SDS011;31129;44.810;10.334;2022-10-30T14:34:25;18.30;;;8.85;;
45392;SDS011;31129;44.810;10.334;2022-10-30T14:37:07;19.80;;;10.00;;
45392;SDS011;31129;44.810;10.334;2022-10-30T14:39:42;25.20;;;10.63;;
45392;SDS011;31129;44.810;10.334;2022-10-30T14:47:56;19.92;;;9.25;;
45392;SDS011;31129;44.810;10.334;2022-10-30T14:58:30;17.98;;;8.50;;
45392;SDS011;31129;44.810;10.334;2022-10-30T15:12:40;21.50;;;7.22;;
45392;SDS011;31129;44.810;10.334;2022-10-30T15:15:18;23.05;;;7.90;;
45392;SDS011;31129;44.810;10.334;2022-10-30T15:17:47;19.50;;;8.32;;
45392;SDS011;31129;44.810;10.334;2022-10-30T15:20:19;20.38;;;7.65;;
45392;SDS011;31129;44.810;10.334;2022-10-30T15:22:48;13.98;;;7.43;;
45392;SDS011;31129;44.810;10.334;2022-10-30T15:25:18;23.33;;;7.43;;
45392;SDS011;31129;44.810;10.334;2022-10-30T15:27:45;29.73;;;7.55;;
45392;SDS011;31129;44.810;10.334;2022-10-30T15:30:18;17.48;;;6.88;;
45392;SDS011;31129;44.810;10.334;2022-10-30T15:32:46;21.95;;;7.40;;
45392;SDS011;31129;44.810;10.334;2022-10-30T15:35:16;18.75;;;7.53;;
45392;SDS011;31129;44.810;10.334;2022-10-30T15:40:32;23.33;;;8.43;;
45392;SDS011;31129;44.810;10.334;2022-10-30T15:42:59;20.60;;;7.45;;
45392;SDS011;31129;44.810;10.334;2022-10-30T15:45:31;21.75;;;7.80;;
45392;SDS011;31129;44.810;10.334;2022-10-30T15:50:30;18.70;;;8.48;;
45392;SDS011;31129;44.810;10.334;2022-10-30T15:52:56;19.55;;;7.65;;
45392;SDS011;31129;44.810;10.334;2022-10-30T15:55:29;21.77;;;7.82;;
45392;SDS011;31129;44.810;10.334;2022-10-30T15:57:57;20.52;;;8.13;;
45392;SDS011;31129;44.810;10.334;2022-10-30T16:00:26;108.50;;;10.63;;
45392;SDS011;31129;44.810;10.334;2022-10-30T16:06:02;23.40;;;8.13;;
45392;SDS011;31129;44.810;10.334;2022-10-30T16:08:29;18.88;;;8.77;;
45392;SDS011;31129;44.810;10.334;2022-10-30T16:10:54;19.35;;;7.65;;
45392;SDS011;31129;44.810;10.334;2022-10-30T16:13:29;21.63;;;8.02;;
45392;SDS011;31129;44.810;10.334;2022-10-30T16:15:55;21.38;;;9.35;;
45392;SDS011;31129;44.810;10.334;2022-10-30T16:18:29;22.30;;;8.43;;
45392;SDS011;31129;44.810;10.334;2022-10-30T16:20:59;18.15;;;8.20;;
45392;SDS011;31129;44.810;10.334;2022-10-30T16:23:28;25.38;;;8.55;;
45392;SDS011;31129;44.810;10.334;2022-10-30T16:25:55;22.17;;;10.02;;
45392;SDS011;31129;44.810;10.334;2022-10-30T16:30:55;20.23;;;9.57;;
45392;SDS011;31129;44.810;10.334;2022-10-30T16:33:25;30.75;;;15.15;;
45392;SDS011;31129;44.810;10.334;2022-10-30T16:35:52;22.80;;;9.57;;
45392;SDS011;31129;44.810;10.334;2022-10-30T16:38:19;21.35;;;9.60;;
45392;SDS011;31129;44.810;10.334;2022-10-30T16:43:33;22.42;;;8.07;;
45392;SDS011;31129;44.810;10.334;2022-10-30T16:48:40;24.33;;;8.68;;
45392;SDS011;31129;44.810;10.334;2022-10-30T16:51:11;20.15;;;8.27;;
45392;SDS011;31129;44.810;10.334;2022-10-30T16:53:39;22.90;;;9.88;;
45392;SDS011;31129;44.810;10.334;2022-10-30T16:56:44;25.60;;;9.63;;
45392;SDS011;31129;44.810;10.334;2022-10-30T16:59:06;26.20;;;9.10;;
45392;SDS011;31129;44.810;10.334;2022-10-30T17:01:40;24.13;;;9.50;;
45392;SDS011;31129;44.810;10.334;2022-10-30T17:04:06;24.42;;;8.95;;
45392;SDS011;31129;44.810;10.334;2022-10-30T17:06:37;26.95;;;8.63;;
45392;SDS011;31129;44.810;10.334;2022-10-30T17:09:19;20.15;;;9.63;;
45392;SDS011;31129;44.810;10.334;2022-10-30T17:15:21;24.30;;;10.63;;
45392;SDS011;31129;44.810;10.334;2022-10-30T17:17:37;21.00;;;10.05;;
45392;SDS011;31129;44.810;10.334;2022-10-30T17:20:25;23.80;;;10.20;;
45392;SDS011;31129;44.810;10.334;2022-10-30T17:23:05;31.73;;;11.95;;
45392;SDS011;31129;44.810;10.334;2022-10-30T17:25:38;27.27;;;10.65;;
45392;SDS011;31129;44.810;10.334;2022-10-30T17:28:05;28.33;;;11.70;;
45392;SDS011;31129;44.810;10.334;2022-10-30T17:30:35;35.00;;;12.45;;
45392;SDS011;31129;44.810;10.334;2022-10-30T17:36:05;26.83;;;12.25;;
45392;SDS011;31129;44.810;10.334;2022-10-30T17:38:31;29.33;;;13.65;;
45392;SDS011;31129;44.810;10.334;2022-10-30T17:40:57;28.00;;;12.48;;
45392;SDS011;31129;44.810;10.334;2022-10-30T17:43:24;28.50;;;12.57;;
45392;SDS011;31129;44.810;10.334;2022-10-30T17:45:53;24.90;;;12.73;;
45392;SDS011;31129;44.810;10.334;2022-10-30T17:48:18;37.03;;;14.18;;